createdAt,value
2022-08-28T00:02:01.764Z,99599.56
2022-08-28T00:07:23.270Z,99553.50
2022-08-28T00:12:47.167Z,99567.84
2022-08-28T00:18:09.022Z,99575.06
2022-08-28T00:23:42.274Z,99584.41
2022-08-28T00:29:05.567Z,99587.16
2022-08-28T00:34:32.993Z,99579.81
2022-08-28T00:39:55.309Z,99574.34
2022-08-28T00:45:20.564Z,99583.28
2022-08-28T00:51:00.958Z,99582.06
2022-08-28T00:56:23.516Z,99575.75
2022-08-28T01:01:47.663Z,99575.47
2022-08-28T01:07:13.156Z,99585.03
2022-08-28T01:12:36.021Z,99577.53
2022-08-28T01:18:07.369Z,99571.03
2022-08-28T01:23:57.984Z,99569.81
2022-08-28T01:29:20.988Z,99578.56
2022-08-28T01:34:42.417Z,99575.78
2022-08-28T01:40:09.556Z,99571.44
2022-08-28T01:45:32.297Z,99580.25
2022-08-28T01:50:55.517Z,99581.69
2022-08-28T01:56:17.969Z,99581.19
2022-08-28T02:01:42.784Z,99584.44
2022-08-28T02:07:04.495Z,99579.50
2022-08-28T02:12:26.101Z,99577.84
2022-08-28T02:17:47.973Z,99576.59
2022-08-28T02:23:10.107Z,99572.50
2022-08-28T02:28:31.879Z,99567.38
2022-08-28T02:33:53.690Z,99573.00
2022-08-28T02:39:16.782Z,99566.78
2022-08-28T02:44:38.817Z,99571.81
2022-08-28T02:50:00.504Z,99575.50
2022-08-28T02:55:24.774Z,99589.50
2022-08-28T03:00:46.374Z,99597.78
2022-08-28T03:06:08.820Z,99586.81
2022-08-28T03:11:30.414Z,99586.66
2022-08-28T03:16:52.933Z,99591.72
2022-08-28T03:22:14.400Z,99594.41
2022-08-28T03:27:36.253Z,99594.03
2022-08-28T03:32:57.744Z,99588.41
2022-08-28T03:38:19.944Z,99585.59
2022-08-28T03:43:41.754Z,99585.22
2022-08-28T03:49:04.605Z,99581.81
2022-08-28T03:54:26.376Z,99580.56
2022-08-28T03:59:53.373Z,99576.06
2022-08-28T04:05:15.017Z,99567.53
2022-08-28T04:10:36.924Z,99569.91
2022-08-28T04:16:00.539Z,99577.47
2022-08-28T04:21:24.522Z,99582.28
2022-08-28T04:26:46.002Z,99573.00
2022-08-28T04:32:07.848Z,99580.66
2022-08-28T04:37:29.383Z,99563.53
2022-08-28T04:42:51.901Z,99568.31
2022-08-28T04:48:14.652Z,99561.25
2022-08-28T04:53:38.608Z,99564.47
2022-08-28T04:59:01.605Z,99567.69
2022-08-28T05:04:23.129Z,99566.75
2022-08-28T05:09:44.893Z,99569.44
2022-08-28T05:15:06.938Z,99575.34
2022-08-28T05:20:28.459Z,99564.81
2022-08-28T05:25:50.072Z,99571.56
2022-08-28T05:31:16.576Z,99566.81
2022-08-28T05:36:39.694Z,99576.63
2022-08-28T05:42:01.182Z,99576.78
2022-08-28T05:47:22.521Z,99581.97
2022-08-28T05:52:44.848Z,99591.25
2022-08-28T05:58:26.189Z,99578.03
2022-08-28T06:03:55.332Z,99575.28
2022-08-28T06:09:28.105Z,99573.31
2022-08-28T06:14:50.846Z,99571.88
2022-08-28T06:20:13.026Z,99579.53
2022-08-28T06:25:45.261Z,99588.13
2022-08-28T06:31:24.657Z,99583.50
2022-08-28T06:36:53.117Z,99583.19
2022-08-28T06:42:15.974Z,99588.84
2022-08-28T06:47:37.279Z,99584.06
2022-08-28T06:52:59.132Z,99591.69
2022-08-28T06:58:20.776Z,99588.13
2022-08-28T07:03:44.330Z,99590.28
2022-08-28T07:09:09.556Z,99592.03
2022-08-28T07:14:30.864Z,99590.34
2022-08-28T07:19:52.135Z,99582.44
2022-08-28T07:25:15.808Z,99570.31
2022-08-28T07:30:37.809Z,99570.22
2022-08-28T07:36:00.536Z,99566.13
2022-08-28T07:41:31.982Z,99562.72
2022-08-28T07:46:55.649Z,99556.84
2022-08-28T07:52:17.050Z,99554.19
2022-08-28T07:57:38.434Z,99544.53
2022-08-28T08:03:00.100Z,99545.75
2022-08-28T08:08:22.520Z,99529.56
2022-08-28T08:13:46.900Z,99528.50
2022-08-28T08:19:16.920Z,99526.84
2022-08-28T08:24:38.523Z,99532.41
2022-08-28T08:30:01.269Z,99530.50
2022-08-28T08:35:24.555Z,99536.00
2022-08-28T08:40:47.532Z,99527.81
2022-08-28T08:46:10.279Z,99537.50
2022-08-28T08:51:43.215Z,99520.38
2022-08-28T08:57:05.146Z,99521.25
2022-08-28T09:02:34.662Z,99514.47
2022-08-28T09:08:01.177Z,99516.78
2022-08-28T09:13:34.252Z,99506.81
2022-08-28T09:18:58.044Z,99494.28
2022-08-28T09:24:35.659Z,99494.56
2022-08-28T09:29:59.168Z,99488.34
2022-08-28T09:35:32.562Z,99486.66
2022-08-28T09:41:30.030Z,99494.28
2022-08-28T09:46:52.674Z,99482.19
2022-08-28T09:52:25.008Z,99483.41
2022-08-28T09:57:48.572Z,99476.53
2022-08-28T10:03:27.860Z,99468.91
2022-08-28T10:09:01.654Z,99468.81
2022-08-28T10:14:34.594Z,99455.59
2022-08-28T10:20:17.910Z,99446.59
2022-08-28T10:25:59.340Z,99441.72
2022-08-28T10:31:43.546Z,99441.97
2022-08-28T10:37:16.668Z,99437.03
2022-08-28T10:42:47.967Z,99426.16
2022-08-28T10:48:33.615Z,99423.53
2022-08-28T10:54:24.948Z,99410.41
2022-08-28T10:59:51.359Z,99399.41
2022-08-28T11:05:13.365Z,99400.03
2022-08-28T11:10:45.556Z,99386.28
2022-08-28T11:16:18.428Z,99388.66
2022-08-28T11:21:42.636Z,99391.34
2022-08-28T11:27:20.912Z,99393.78
2022-08-28T11:32:51.516Z,99396.31
2022-08-28T11:38:42.032Z,99386.31
2022-08-28T11:44:09.686Z,99383.38
2022-08-28T11:49:39.325Z,99388.34
2022-08-28T11:55:16.322Z,99382.28
2022-08-28T12:00:58.057Z,99393.41
2022-08-28T12:06:44.893Z,99370.25
2022-08-28T12:12:13.770Z,99366.31
2022-08-28T12:17:46.867Z,99357.16
2022-08-28T12:23:23.817Z,99354.78
2022-08-28T12:28:48.620Z,99350.63
2022-08-28T12:34:24.655Z,99351.00
2022-08-28T12:39:45.971Z,99350.09
2022-08-28T12:45:11.292Z,99341.88
2022-08-28T12:50:39.294Z,99356.06
2022-08-28T12:56:01.097Z,99348.53
2022-08-28T13:01:31.730Z,99348.50
2022-08-28T13:07:01.997Z,99354.47
2022-08-28T13:12:55.281Z,99341.25
2022-08-28T13:18:52.321Z,99340.38
2022-08-28T13:24:27.532Z,99337.31
2022-08-28T13:29:57.389Z,99325.31
2022-08-28T13:35:21.034Z,99313.09
2022-08-28T13:40:59.377Z,99307.88
2022-08-28T13:46:21.569Z,99297.28
2022-08-28T13:51:43.567Z,99293.16
2022-08-28T13:57:05.698Z,99291.56
2022-08-28T14:02:46.684Z,99290.63
2022-08-28T14:08:08.647Z,99274.84
2022-08-28T14:13:31.409Z,99271.06
2022-08-28T14:18:54.839Z,99286.72
2022-08-28T14:24:19.116Z,99265.06
2022-08-28T14:29:41.699Z,99255.00
2022-08-28T14:35:05.975Z,99257.81
2022-08-28T14:40:27.424Z,99254.25
2022-08-28T14:45:50.493Z,99258.63
2022-08-28T14:51:11.943Z,99248.91
2022-08-28T14:56:33.648Z,99239.91
2022-08-28T15:02:00.344Z,99235.22
2022-08-28T15:07:23.007Z,99232.03
2022-08-28T15:12:44.784Z,99225.75
2022-08-28T15:18:10.661Z,99222.38
2022-08-28T15:23:32.852Z,99212.34
2022-08-28T15:29:02.508Z,99206.03
2022-08-28T15:34:27.573Z,99203.66
2022-08-28T15:40:08.254Z,99208.88
2022-08-28T15:45:30.185Z,99201.66
2022-08-28T15:50:52.577Z,99195.97
2022-08-28T15:56:15.663Z,99200.09
2022-08-28T16:01:38.675Z,99197.56
2022-08-28T16:07:01.177Z,99197.66
2022-08-28T16:12:23.139Z,99190.63
2022-08-28T16:17:44.852Z,99193.66
2022-08-28T16:23:06.184Z,99192.03
2022-08-28T16:28:28.945Z,99184.28
2022-08-28T16:33:50.966Z,99185.44
2022-08-28T16:39:12.346Z,99182.28
2022-08-28T16:44:35.086Z,99176.28
2022-08-28T16:49:58.306Z,99174.53
2022-08-28T16:55:19.943Z,99166.72
2022-08-28T17:00:52.828Z,99164.84
2022-08-28T17:06:19.758Z,99164.06
2022-08-28T17:11:42.277Z,99162.47
2022-08-28T17:17:04.899Z,99161.91
2022-08-28T17:22:32.704Z,99158.41
2022-08-28T17:27:54.830Z,99147.06
2022-08-28T17:33:16.435Z,99145.84
2022-08-28T17:38:38.614Z,99142.66
2022-08-28T17:44:01.153Z,99142.84
2022-08-28T17:49:22.973Z,99140.84
2022-08-28T17:54:56.292Z,99143.22
2022-08-28T18:00:18.507Z,99134.91
2022-08-28T18:05:41.477Z,99144.66
2022-08-28T18:11:02.940Z,99140.97
2022-08-28T18:16:28.892Z,99143.19
2022-08-28T18:21:51.982Z,99135.66
2022-08-28T18:27:13.526Z,99140.22
2022-08-28T18:32:35.279Z,99127.47
2022-08-28T18:37:56.778Z,99131.66
2022-08-28T18:43:20.483Z,99121.09
2022-08-28T18:48:43.224Z,99115.94
2022-08-28T18:54:04.660Z,99112.09
2022-08-28T18:59:31.862Z,99103.63
2022-08-28T19:04:53.619Z,99101.75
2022-08-28T19:10:32.812Z,99087.19
2022-08-28T19:15:55.803Z,99079.56
2022-08-28T19:21:19.833Z,99086.00
2022-08-28T19:26:41.388Z,99080.50
2022-08-28T19:32:03.283Z,99071.78
2022-08-28T19:37:25.412Z,99074.16
2022-08-28T19:42:46.921Z,99067.81
2022-08-28T19:48:08.850Z,99060.44
2022-08-28T19:53:31.809Z,99058.75
2022-08-28T19:58:54.962Z,99038.97
2022-08-28T20:04:17.978Z,99044.69
2022-08-28T20:09:39.716Z,99037.47
2022-08-28T20:15:03.629Z,99049.19
2022-08-28T20:20:29.752Z,99046.53
2022-08-28T20:25:51.884Z,99041.00
2022-08-28T20:31:18.151Z,99049.91
2022-08-28T20:36:40.210Z,99047.22
2022-08-28T20:42:01.525Z,99054.25
2022-08-28T20:47:23.541Z,99075.69
2022-08-28T20:52:45.491Z,99059.59
2022-08-28T20:58:07.294Z,99060.47
2022-08-28T21:03:29.182Z,99076.19
2022-08-28T21:08:50.761Z,99063.78
2022-08-28T21:14:12.673Z,99052.53
2022-08-28T21:19:40.670Z,99065.47
2022-08-28T21:25:02.719Z,99062.44
2022-08-28T21:30:25.496Z,99062.97
2022-08-28T21:35:51.040Z,99094.06
2022-08-28T21:41:14.409Z,99101.41
2022-08-28T21:46:35.805Z,99131.25
2022-08-28T21:52:01.265Z,99142.97
2022-08-28T21:57:22.775Z,99116.63
2022-08-28T22:02:44.631Z,99127.81
2022-08-28T22:08:05.787Z,99133.78
2022-08-28T22:13:27.488Z,99169.25
2022-08-28T22:18:49.116Z,99202.25
2022-08-28T22:24:12.110Z,99201.84
2022-08-28T22:29:36.721Z,99200.13
2022-08-28T22:34:58.109Z,99208.53
2022-08-28T22:40:20.746Z,99207.25
2022-08-28T22:46:23.918Z,99195.84
2022-08-28T22:51:45.473Z,99187.28
2022-08-28T22:57:07.122Z,99184.06
2022-08-28T23:02:28.996Z,99166.25
2022-08-28T23:07:50.779Z,99148.56
2022-08-28T23:13:14.287Z,99156.13
2022-08-28T23:19:06.128Z,99139.66
2022-08-28T23:24:17.937Z,99118.38
2022-08-28T23:29:39.730Z,99111.66
2022-08-28T23:35:01.299Z,99104.69
2022-08-28T23:40:24.838Z,99069.53
2022-08-28T23:45:46.254Z,99061.13
2022-08-28T23:51:11.839Z,99064.50
2022-08-28T23:56:33.841Z,99042.84
